sensor_id;sensor_type;location;lat;lon;timestamp;pressure;altitude;pressure_sealevel;temperature;humidity
45813;BME280;31519;45.408;10.962;2024-02-04T00:01:26;101553.09;;;9.14;70.70
45813;BME280;31519;45.408;10.962;2024-02-04T00:03:55;101552.59;;;9.02;70.55
45813;BME280;31519;45.408;10.962;2024-02-04T00:06:23;101552.84;;;9.10;70.51
45813;BME280;31519;45.408;10.962;2024-02-04T00:08:51;101549.94;;;9.12;70.59
45813;BME280;31519;45.408;10.962;2024-02-04T00:11:20;101558.16;;;9.20;70.49
45813;BME280;31519;45.408;10.962;2024-02-04T00:13:49;101549.88;;;9.37;70.13
45813;BME280;31519;45.408;10.962;2024-02-04T00:16:17;101552.31;;;9.13;70.34
45813;BME280;31519;45.408;10.962;2024-02-04T00:18:45;101552.34;;;8.93;71.68
45813;BME280;31519;45.408;10.962;2024-02-04T00:21:14;101542.75;;;9.07;71.47
45813;BME280;31519;45.408;10.962;2024-02-04T00:23:42;101527.34;;;9.09;71.24
45813;BME280;31519;45.408;10.962;2024-02-04T00:26:11;101522.00;;;9.09;71.17
45813;BME280;31519;45.408;10.962;2024-02-04T00:28:39;101531.59;;;9.00;71.63
45813;BME280;31519;45.408;10.962;2024-02-04T00:31:11;101525.47;;;9.15;71.54
45813;BME280;31519;45.408;10.962;2024-02-04T00:33:39;101541.44;;;9.00;72.01
45813;BME280;31519;45.408;10.962;2024-02-04T00:36:08;101537.72;;;8.90;72.28
45813;BME280;31519;45.408;10.962;2024-02-04T00:38:36;101532.94;;;8.87;72.46
45813;BME280;31519;45.408;10.962;2024-02-04T00:41:04;101536.41;;;8.93;72.11
45813;BME280;31519;45.408;10.962;2024-02-04T00:43:33;101547.28;;;8.97;72.44
45813;BME280;31519;45.408;10.962;2024-02-04T00:46:02;101552.84;;;8.95;72.22
45813;BME280;31519;45.408;10.962;2024-02-04T00:48:30;101536.94;;;8.75;73.43
45813;BME280;31519;45.408;10.962;2024-02-04T00:50:59;101535.31;;;8.94;72.65
45813;BME280;31519;45.408;10.962;2024-02-04T00:53:27;101531.03;;;9.08;72.70
45813;BME280;31519;45.408;10.962;2024-02-04T00:56:03;101523.63;;;8.95;72.16
45813;BME280;31519;45.408;10.962;2024-02-04T00:58:31;101515.66;;;8.95;72.92
45813;BME280;31519;45.408;10.962;2024-02-04T01:01:00;101499.44;;;9.07;72.25
45813;BME280;31519;45.408;10.962;2024-02-04T01:03:28;101516.75;;;8.64;73.71
45813;BME280;31519;45.408;10.962;2024-02-04T01:05:57;101523.66;;;8.70;74.06
45813;BME280;31519;45.408;10.962;2024-02-04T01:08:26;101530.81;;;8.84;73.50
45813;BME280;31519;45.408;10.962;2024-02-04T01:10:54;101533.19;;;8.91;73.12
45813;BME280;31519;45.408;10.962;2024-02-04T01:13:22;101542.78;;;8.97;72.66
45813;BME280;31519;45.408;10.962;2024-02-04T01:15:52;101539.06;;;8.88;73.44
45813;BME280;31519;45.408;10.962;2024-02-04T01:18:20;101539.56;;;8.90;72.96
45813;BME280;31519;45.408;10.962;2024-02-04T01:20:48;101540.38;;;9.06;72.75
45813;BME280;31519;45.408;10.962;2024-02-04T01:23:17;101539.31;;;8.81;73.42
45813;BME280;31519;45.408;10.962;2024-02-04T01:25:46;101550.19;;;8.95;73.44
45813;BME280;31519;45.408;10.962;2024-02-04T01:28:14;101541.44;;;8.69;73.85
45813;BME280;31519;45.408;10.962;2024-02-04T01:30:43;101547.56;;;8.75;74.34
45813;BME280;31519;45.408;10.962;2024-02-04T01:33:11;101556.84;;;8.87;73.99
45813;BME280;31519;45.408;10.962;2024-02-04T01:35:40;101558.44;;;8.73;74.12
45813;BME280;31519;45.408;10.962;2024-02-04T01:38:08;101553.13;;;8.83;73.85
45813;BME280;31519;45.408;10.962;2024-02-04T01:40:36;101549.41;;;8.74;73.96
45813;BME280;31519;45.408;10.962;2024-02-04T01:43:05;101546.47;;;8.71;73.90
45813;BME280;31519;45.408;10.962;2024-02-04T01:45:34;101543.31;;;8.69;74.27
45813;BME280;31519;45.408;10.962;2024-02-04T01:48:02;101541.97;;;8.56;74.88
45813;BME280;31519;45.408;10.962;2024-02-04T01:50:31;101535.59;;;8.67;74.42
45813;BME280;31519;45.408;10.962;2024-02-04T01:52:59;101539.31;;;8.51;75.19
45813;BME280;31519;45.408;10.962;2024-02-04T01:55:29;101539.59;;;8.60;75.34
45813;BME280;31519;45.408;10.962;2024-02-04T01:57:57;101534.00;;;8.86;74.87
45813;BME280;31519;45.408;10.962;2024-02-04T02:00:26;101518.59;;;8.68;74.65
45813;BME280;31519;45.408;10.962;2024-02-04T02:02:55;101524.16;;;8.62;75.14
45813;BME280;31519;45.408;10.962;2024-02-04T02:05:25;101534.50;;;8.48;75.15
45813;BME280;31519;45.408;10.962;2024-02-04T02:07:53;101524.72;;;8.38;75.83
45813;BME280;31519;45.408;10.962;2024-02-04T02:10:21;101514.59;;;8.40;76.07
45813;BME280;31519;45.408;10.962;2024-02-04T02:13:04;101518.06;;;8.36;76.24
45813;BME280;31519;45.408;10.962;2024-02-04T02:15:43;101517.50;;;8.29;76.66
45813;BME280;31519;45.408;10.962;2024-02-04T02:18:43;101524.16;;;8.41;76.37
45813;BME280;31519;45.408;10.962;2024-02-04T02:24:16;101521.78;;;8.85;74.08
45813;BME280;31519;45.408;10.962;2024-02-04T02:26:49;101529.22;;;8.63;74.62
45813;BME280;31519;45.408;10.962;2024-02-04T02:29:18;101533.72;;;8.58;75.33
45813;BME280;31519;45.408;10.962;2024-02-04T02:31:48;101531.06;;;8.32;75.83
45813;BME280;31519;45.408;10.962;2024-02-04T02:34:16;101531.53;;;8.14;76.42
45813;BME280;31519;45.408;10.962;2024-02-04T02:39:54;101517.25;;;8.40;75.50
45813;BME280;31519;45.408;10.962;2024-02-04T02:42:27;101523.63;;;8.50;75.80
45813;BME280;31519;45.408;10.962;2024-02-04T02:44:56;101521.25;;;8.58;75.14
45813;BME280;31519;45.408;10.962;2024-02-04T02:47:26;101531.09;;;8.48;75.00
45813;BME280;31519;45.408;10.962;2024-02-04T02:49:57;101532.66;;;8.54;75.62
45813;BME280;31519;45.408;10.962;2024-02-04T02:52:25;101527.63;;;8.52;75.18
45813;BME280;31519;45.408;10.962;2024-02-04T02:54:54;101532.41;;;8.60;75.04
45813;BME280;31519;45.408;10.962;2024-02-04T02:57:22;101522.03;;;8.43;75.14
45813;BME280;31519;45.408;10.962;2024-02-04T02:59:50;101528.13;;;8.44;75.43
45813;BME280;31519;45.408;10.962;2024-02-04T03:02:19;101509.81;;;8.58;75.26
45813;BME280;31519;45.408;10.962;2024-02-04T03:04:47;101520.19;;;8.34;75.88
45813;BME280;31519;45.408;10.962;2024-02-04T03:07:16;101502.41;;;8.60;74.96
45813;BME280;31519;45.408;10.962;2024-02-04T03:09:44;101489.63;;;8.67;74.92
45813;BME280;31519;45.408;10.962;2024-02-04T03:12:13;101496.56;;;8.32;75.52
45813;BME280;31519;45.408;10.962;2024-02-04T03:14:41;101500.78;;;8.49;75.93
45813;BME280;31519;45.408;10.962;2024-02-04T03:17:10;101500.75;;;8.18;75.91
45813;BME280;31519;45.408;10.962;2024-02-04T03:19:40;101505.50;;;8.11;77.03
45813;BME280;31519;45.408;10.962;2024-02-04T03:22:08;101488.28;;;8.19;76.62
45813;BME280;31519;45.408;10.962;2024-02-04T03:24:36;101499.69;;;8.24;76.37
45813;BME280;31519;45.408;10.962;2024-02-04T03:27:05;101493.09;;;8.37;75.61
45813;BME280;31519;45.408;10.962;2024-02-04T03:29:33;101488.81;;;8.11;76.48
45813;BME280;31519;45.408;10.962;2024-02-04T03:32:02;101473.66;;;8.06;76.72
45813;BME280;31519;45.408;10.962;2024-02-04T03:34:30;101475.53;;;8.06;77.16
45813;BME280;31519;45.408;10.962;2024-02-04T03:36:59;101476.03;;;8.02;77.47
45813;BME280;31519;45.408;10.962;2024-02-04T03:39:27;101474.47;;;8.01;77.05
45813;BME280;31519;45.408;10.962;2024-02-04T03:41:56;101475.25;;;8.17;76.42
45813;BME280;31519;45.408;10.962;2024-02-04T03:44:24;101467.56;;;8.11;76.78
45813;BME280;31519;45.408;10.962;2024-02-04T03:46:52;101470.22;;;8.06;77.01
45813;BME280;31519;45.408;10.962;2024-02-04T03:49:21;101466.50;;;8.01;76.78
45813;BME280;31519;45.408;10.962;2024-02-04T03:51:49;101459.31;;;8.02;77.27
45813;BME280;31519;45.408;10.962;2024-02-04T03:54:18;101463.03;;;7.96;77.29
45813;BME280;31519;45.408;10.962;2024-02-04T03:56:47;101455.06;;;7.96;77.43
45813;BME280;31519;45.408;10.962;2024-02-04T03:59:15;101466.22;;;7.88;78.13
45813;BME280;31519;45.408;10.962;2024-02-04T04:01:48;101473.47;;;8.38;76.27
45813;BME280;31519;45.408;10.962;2024-02-04T04:04:17;101467.06;;;8.39;75.63
45813;BME280;31519;45.408;10.962;2024-02-04T04:06:45;101471.00;;;8.01;77.17
45813;BME280;31519;45.408;10.962;2024-02-04T04:09:14;101467.50;;;7.85;77.30
45813;BME280;31519;45.408;10.962;2024-02-04T04:11:42;101452.91;;;7.78;78.16
45813;BME280;31519;45.408;10.962;2024-02-04T04:14:10;101477.06;;;7.81;78.24
45813;BME280;31519;45.408;10.962;2024-02-04T04:16:39;101490.09;;;8.03;77.57
45813;BME280;31519;45.408;10.962;2024-02-04T04:19:07;101486.91;;;7.96;76.78
45813;BME280;31519;45.408;10.962;2024-02-04T04:21:37;101491.88;;;7.72;77.33
45813;BME280;31519;45.408;10.962;2024-02-04T04:24:06;101473.88;;;7.84;77.43
45813;BME280;31519;45.408;10.962;2024-02-04T04:26:34;101472.78;;;7.65;78.27
45813;BME280;31519;45.408;10.962;2024-02-04T04:29:02;101465.06;;;7.58;78.54
45813;BME280;31519;45.408;10.962;2024-02-04T04:31:31;101470.16;;;7.80;77.95
45813;BME280;31519;45.408;10.962;2024-02-04T04:33:59;101486.06;;;7.80;77.83
45813;BME280;31519;45.408;10.962;2024-02-04T04:36:27;101483.69;;;7.84;77.39
45813;BME280;31519;45.408;10.962;2024-02-04T04:38:55;101470.38;;;7.64;77.77
45813;BME280;31519;45.408;10.962;2024-02-04T04:41:24;101458.16;;;7.63;77.73
45813;BME280;31519;45.408;10.962;2024-02-04T04:43:52;101456.72;;;7.35;79.07
45813;BME280;31519;45.408;10.962;2024-02-04T04:46:21;101467.63;;;7.43;79.20
45813;BME280;31519;45.408;10.962;2024-02-04T04:48:49;101471.38;;;7.42;79.33
45813;BME280;31519;45.408;10.962;2024-02-04T04:51:17;101464.50;;;7.56;79.00
45813;BME280;31519;45.408;10.962;2024-02-04T04:53:45;101461.81;;;7.41;78.95
45813;BME280;31519;45.408;10.962;2024-02-04T04:56:14;101479.34;;;7.52;79.15
45813;BME280;31519;45.408;10.962;2024-02-04T04:58:42;101480.72;;;7.75;78.53
45813;BME280;31519;45.408;10.962;2024-02-04T05:01:10;101480.97;;;7.58;78.42
45813;BME280;31519;45.408;10.962;2024-02-04T05:03:40;101477.97;;;7.40;78.82
45813;BME280;31519;45.408;10.962;2024-02-04T05:06:08;101487.22;;;7.32;79.17
45813;BME280;31519;45.408;10.962;2024-02-04T05:08:36;101482.16;;;7.31;79.26
45813;BME280;31519;45.408;10.962;2024-02-04T05:11:04;101481.31;;;7.25;79.58
45813;BME280;31519;45.408;10.962;2024-02-04T05:13:32;101490.03;;;7.21;79.95
45813;BME280;31519;45.408;10.962;2024-02-04T05:16:01;101498.44;;;7.07;80.09
45813;BME280;31519;45.408;10.962;2024-02-04T05:18:29;101487.72;;;7.29;79.17
45813;BME280;31519;45.408;10.962;2024-02-04T05:20:57;101489.88;;;7.32;79.13
45813;BME280;31519;45.408;10.962;2024-02-04T05:23:25;101500.63;;;7.16;79.60
45813;BME280;31519;45.408;10.962;2024-02-04T05:25:54;101500.22;;;7.39;78.44
45813;BME280;31519;45.408;10.962;2024-02-04T05:28:22;101508.84;;;7.14;79.04
45813;BME280;31519;45.408;10.962;2024-02-04T05:30:50;101490.47;;;7.02;79.48
45813;BME280;31519;45.408;10.962;2024-02-04T05:33:18;101499.94;;;6.93;79.71
45813;BME280;31519;45.408;10.962;2024-02-04T05:35:47;101499.25;;;7.08;78.90
45813;BME280;31519;45.408;10.962;2024-02-04T05:38:16;101502.28;;;6.85;80.19
45813;BME280;31519;45.408;10.962;2024-02-04T05:40:44;101499.94;;;6.93;79.89
45813;BME280;31519;45.408;10.962;2024-02-04T05:43:12;101509.38;;;6.79;80.77
45813;BME280;31519;45.408;10.962;2024-02-04T05:45:41;101509.47;;;6.89;80.97
45813;BME280;31519;45.408;10.962;2024-02-04T05:48:10;101507.94;;;6.98;80.38
45813;BME280;31519;45.408;10.962;2024-02-04T05:50:38;101513.25;;;7.03;79.86
45813;BME280;31519;45.408;10.962;2024-02-04T05:53:07;101526.34;;;6.78;80.64
45813;BME280;31519;45.408;10.962;2024-02-04T05:55:35;101523.75;;;6.88;80.86
45813;BME280;31519;45.408;10.962;2024-02-04T05:58:03;101521.34;;;6.82;80.52
45813;BME280;31519;45.408;10.962;2024-02-04T06:00:32;101528.69;;;6.75;81.06
45813;BME280;31519;45.408;10.962;2024-02-04T06:03:00;101525.47;;;7.04;80.54
45813;BME280;31519;45.408;10.962;2024-02-04T06:05:29;101537.50;;;6.85;80.84
45813;BME280;31519;45.408;10.962;2024-02-04T06:07:57;101541.00;;;6.91;80.77
45813;BME280;31519;45.408;10.962;2024-02-04T06:10:25;101549.13;;;6.84;80.59
45813;BME280;31519;45.408;10.962;2024-02-04T06:12:53;101551.69;;;6.69;81.57
45813;BME280;31519;45.408;10.962;2024-02-04T06:15:21;101556.25;;;6.79;81.26
45813;BME280;31519;45.408;10.962;2024-02-04T06:17:50;101544.59;;;6.80;81.52
45813;BME280;31519;45.408;10.962;2024-02-04T06:20:18;101550.41;;;6.77;81.25
45813;BME280;31519;45.408;10.962;2024-02-04T06:22:47;101549.13;;;6.84;80.80
45813;BME280;31519;45.408;10.962;2024-02-04T06:25:15;101561.91;;;6.87;80.98
45813;BME280;31519;45.408;10.962;2024-02-04T06:27:43;101565.31;;;6.83;81.21
45813;BME280;31519;45.408;10.962;2024-02-04T06:30:12;101567.69;;;6.84;81.15
45813;BME280;31519;45.408;10.962;2024-02-04T06:32:40;101577.41;;;6.79;81.02
45813;BME280;31519;45.408;10.962;2024-02-04T06:35:09;101578.06;;;6.91;80.84
45813;BME280;31519;45.408;10.962;2024-02-04T06:37:37;101583.53;;;6.79;80.98
45813;BME280;31519;45.408;10.962;2024-02-04T06:40:06;101581.63;;;7.06;80.03
45813;BME280;31519;45.408;10.962;2024-02-04T06:42:34;101583.19;;;7.02;80.19
45813;BME280;31519;45.408;10.962;2024-02-04T06:45:03;101594.47;;;7.25;79.26
45813;BME280;31519;45.408;10.962;2024-02-04T06:47:31;101595.59;;;6.97;78.63
45813;BME280;31519;45.408;10.962;2024-02-04T06:49:59;101599.72;;;6.83;79.64
45813;BME280;31519;45.408;10.962;2024-02-04T06:52:31;101612.03;;;6.99;79.10
45813;BME280;31519;45.408;10.962;2024-02-04T06:54:59;101606.03;;;6.77;79.82
45813;BME280;31519;45.408;10.962;2024-02-04T06:57:27;101600.91;;;6.70;80.18
45813;BME280;31519;45.408;10.962;2024-02-04T06:59:56;101616.97;;;6.58;80.67
45813;BME280;31519;45.408;10.962;2024-02-04T07:02:24;101615.19;;;6.96;79.67
45813;BME280;31519;45.408;10.962;2024-02-04T07:04:52;101602.28;;;7.04;79.00
45813;BME280;31519;45.408;10.962;2024-02-04T07:07:22;101609.00;;;6.85;79.90
45813;BME280;31519;45.408;10.962;2024-02-04T07:09:50;101612.34;;;6.76;80.09
45813;BME280;31519;45.408;10.962;2024-02-04T07:12:18;101625.00;;;6.95;79.35
45813;BME280;31519;45.408;10.962;2024-02-04T07:14:46;101627.34;;;6.92;80.57
45813;BME280;31519;45.408;10.962;2024-02-04T07:17:15;101619.13;;;6.93;80.40
45813;BME280;31519;45.408;10.962;2024-02-04T07:19:43;101638.44;;;7.21;79.43
45813;BME280;31519;45.408;10.962;2024-02-04T07:22:11;101639.22;;;7.58;77.73
45813;BME280;31519;45.408;10.962;2024-02-04T07:24:39;101644.41;;;7.43;77.77
45813;BME280;31519;45.408;10.962;2024-02-04T07:27:08;101641.38;;;7.61;77.67
45813;BME280;31519;45.408;10.962;2024-02-04T07:29:36;101630.19;;;7.54;77.69
45813;BME280;31519;45.408;10.962;2024-02-04T07:32:04;101633.81;;;7.43;77.44
45813;BME280;31519;45.408;10.962;2024-02-04T07:34:32;101639.84;;;7.75;76.53
45813;BME280;31519;45.408;10.962;2024-02-04T07:37:01;101636.75;;;7.88;76.17
45813;BME280;31519;45.408;10.962;2024-02-04T07:39:30;101644.88;;;7.72;76.27
45813;BME280;31519;45.408;10.962;2024-02-04T07:42:00;101642.03;;;7.83;76.51
45813;BME280;31519;45.408;10.962;2024-02-04T07:44:28;101646.50;;;7.73;76.67
45813;BME280;31519;45.408;10.962;2024-02-04T07:46:58;101644.69;;;7.83;75.89
45813;BME280;31519;45.408;10.962;2024-02-04T07:49:27;101656.72;;;8.01;75.70
45813;BME280;31519;45.408;10.962;2024-02-04T07:51:55;101654.63;;;8.08;75.55
45813;BME280;31519;45.408;10.962;2024-02-04T07:54:23;101661.59;;;8.19;75.04
45813;BME280;31519;45.408;10.962;2024-02-04T07:56:52;101648.16;;;7.89;75.52
45813;BME280;31519;45.408;10.962;2024-02-04T07:59:20;101646.63;;;8.03;75.66
45813;BME280;31519;45.408;10.962;2024-02-04T08:01:48;101656.53;;;8.18;75.09
45813;BME280;31519;45.408;10.962;2024-02-04T08:04:17;101659.84;;;8.45;74.24
45813;BME280;31519;45.408;10.962;2024-02-04T08:06:46;101654.09;;;8.78;72.86
45813;BME280;31519;45.408;10.962;2024-02-04T08:09:14;101668.97;;;8.79;72.86
45813;BME280;31519;45.408;10.962;2024-02-04T08:11:42;101662.59;;;8.90;72.18
45813;BME280;31519;45.408;10.962;2024-02-04T08:14:10;101661.03;;;9.15;71.09
45813;BME280;31519;45.408;10.962;2024-02-04T08:16:39;101673.22;;;8.96;72.21
45813;BME280;31519;45.408;10.962;2024-02-04T08:19:08;101666.03;;;8.86;72.02
45813;BME280;31519;45.408;10.962;2024-02-04T08:21:36;101661.81;;;9.10;71.32
45813;BME280;31519;45.408;10.962;2024-02-04T08:24:04;101657.56;;;9.24;70.99
45813;BME280;31519;45.408;10.962;2024-02-04T08:26:33;101658.38;;;9.25;70.76
45813;BME280;31519;45.408;10.962;2024-02-04T08:29:01;101662.34;;;9.22;71.24
45813;BME280;31519;45.408;10.962;2024-02-04T08:31:32;101659.44;;;9.19;70.72
45813;BME280;31519;45.408;10.962;2024-02-04T08:34:01;101658.09;;;9.57;70.17
45813;BME280;31519;45.408;10.962;2024-02-04T08:36:30;101665.19;;;9.87;69.75
45813;BME280;31519;45.408;10.962;2024-02-04T08:38:59;101677.09;;;10.09;69.31
45813;BME280;31519;45.408;10.962;2024-02-04T08:41:27;101682.38;;;10.35;68.23
45813;BME280;31519;45.408;10.962;2024-02-04T08:43:55;101680.06;;;10.08;68.44
45813;BME280;31519;45.408;10.962;2024-02-04T08:46:24;101682.88;;;10.37;67.85
45813;BME280;31519;45.408;10.962;2024-02-04T08:48:52;101671.16;;;10.38;67.65
45813;BME280;31519;45.408;10.962;2024-02-04T08:51:20;101671.97;;;10.38;68.28
45813;BME280;31519;45.408;10.962;2024-02-04T08:53:49;101679.41;;;10.36;68.06
45813;BME280;31519;45.408;10.962;2024-02-04T08:56:17;101676.44;;;10.48;68.26
45813;BME280;31519;45.408;10.962;2024-02-04T08:58:46;101665.00;;;10.47;68.12
45813;BME280;31519;45.408;10.962;2024-02-04T09:01:14;101679.63;;;10.50;68.64
45813;BME280;31519;45.408;10.962;2024-02-04T09:03:43;101676.22;;;10.83;67.64
45813;BME280;31519;45.408;10.962;2024-02-04T09:06:11;101666.38;;;10.84;67.28
45813;BME280;31519;45.408;10.962;2024-02-04T09:08:39;101653.59;;;10.81;67.70
45813;BME280;31519;45.408;10.962;2024-02-04T09:11:08;101655.19;;;10.82;67.82
45813;BME280;31519;45.408;10.962;2024-02-04T09:13:36;101657.44;;;10.59;67.97
45813;BME280;31519;45.408;10.962;2024-02-04T09:16:05;101657.91;;;10.77;67.97
45813;BME280;31519;45.408;10.962;2024-02-04T09:18:33;101654.66;;;10.85;67.38
45813;BME280;31519;45.408;10.962;2024-02-04T09:21:02;101655.66;;;10.94;67.98
45813;BME280;31519;45.408;10.962;2024-02-04T09:23:31;101649.50;;;11.56;66.79
45813;BME280;31519;45.408;10.962;2024-02-04T09:25:59;101655.47;;;11.77;66.07
45813;BME280;31519;45.408;10.962;2024-02-04T09:28:28;101653.66;;;11.72;66.23
45813;BME280;31519;45.408;10.962;2024-02-04T09:30:57;101654.75;;;11.66;66.31
45813;BME280;31519;45.408;10.962;2024-02-04T09:33:25;101650.19;;;11.95;65.58
45813;BME280;31519;45.408;10.962;2024-02-04T09:35:54;101642.84;;;12.06;64.89
45813;BME280;31519;45.408;10.962;2024-02-04T09:38:23;101650.78;;;12.54;64.18
45813;BME280;31519;45.408;10.962;2024-02-04T09:40:52;101658.69;;;11.97;65.91
45813;BME280;31519;45.408;10.962;2024-02-04T09:43:20;101644.56;;;12.39;64.34
45813;BME280;31519;45.408;10.962;2024-02-04T09:45:49;101639.28;;;12.34;65.24
45813;BME280;31519;45.408;10.962;2024-02-04T09:48:18;101646.16;;;12.97;64.39
45813;BME280;31519;45.408;10.962;2024-02-04T09:50:50;101649.91;;;13.14;63.02
45813;BME280;31519;45.408;10.962;2024-02-04T09:53:29;101646.53;;;13.55;62.56
45813;BME280;31519;45.408;10.962;2024-02-04T09:56:02;101644.75;;;14.05;59.86
45813;BME280;31519;45.408;10.962;2024-02-04T09:58:31;101648.44;;;13.95;59.03
45813;BME280;31519;45.408;10.962;2024-02-04T10:01:04;101648.63;;;13.99;57.05
45813;BME280;31519;45.408;10.962;2024-02-04T10:03:32;101646.72;;;14.27;56.63
45813;BME280;31519;45.408;10.962;2024-02-04T10:06:01;101641.00;;;14.69;54.91
45813;BME280;31519;45.408;10.962;2024-02-04T10:08:29;101637.16;;;14.84;54.70
45813;BME280;31519;45.408;10.962;2024-02-04T10:10:58;101636.19;;;14.30;55.53
45813;BME280;31519;45.408;10.962;2024-02-04T10:13:27;101632.66;;;14.93;53.98
45813;BME280;31519;45.408;10.962;2024-02-04T10:15:55;101641.78;;;14.06;56.57
45813;BME280;31519;45.408;10.962;2024-02-04T10:18:24;101632.72;;;13.61;58.65
45813;BME280;31519;45.408;10.962;2024-02-04T10:20:54;101620.94;;;13.76;58.36
45813;BME280;31519;45.408;10.962;2024-02-04T10:23:22;101616.38;;;13.63;58.92
45813;BME280;31519;45.408;10.962;2024-02-04T10:25:58;101621.28;;;13.15;60.86
45813;BME280;31519;45.408;10.962;2024-02-04T10:28:31;101634.72;;;13.56;60.90
45813;BME280;31519;45.408;10.962;2024-02-04T10:30:59;101623.69;;;13.44;59.82
45813;BME280;31519;45.408;10.962;2024-02-04T10:33:30;101621.66;;;13.68;59.22
45813;BME280;31519;45.408;10.962;2024-02-04T10:35:59;101607.53;;;14.89;56.25
45813;BME280;31519;45.408;10.962;2024-02-04T10:38:27;101601.47;;;14.39;56.33
45813;BME280;31519;45.408;10.962;2024-02-04T10:40:59;101609.88;;;14.32;56.74
45813;BME280;31519;45.408;10.962;2024-02-04T10:43:31;101618.03;;;14.41;55.23
45813;BME280;31519;45.408;10.962;2024-02-04T10:46:20;101617.63;;;14.47;56.00
45813;BME280;31519;45.408;10.962;2024-02-04T10:48:55;101612.47;;;14.95;54.78
45813;BME280;31519;45.408;10.962;2024-02-04T10:51:25;101601.44;;;14.75;55.56
45813;BME280;31519;45.408;10.962;2024-02-04T10:53:58;101587.97;;;15.50;54.03
45813;BME280;31519;45.408;10.962;2024-02-04T10:56:32;101585.69;;;14.59;54.37
45813;BME280;31519;45.408;10.962;2024-02-04T10:59:03;101581.97;;;14.47;54.54
45813;BME280;31519;45.408;10.962;2024-02-04T11:01:32;101569.78;;;14.85;53.40
45813;BME280;31519;45.408;10.962;2024-02-04T11:04:00;101570.81;;;14.17;55.61
45813;BME280;31519;45.408;10.962;2024-02-04T11:06:31;101574.25;;;14.68;55.46
45813;BME280;31519;45.408;10.962;2024-02-04T11:09:01;101569.72;;;15.30;53.68
45813;BME280;31519;45.408;10.962;2024-02-04T11:11:30;101578.44;;;15.75;53.05
45813;BME280;31519;45.408;10.962;2024-02-04T11:14:00;101572.13;;;15.71;53.07
45813;BME280;31519;45.408;10.962;2024-02-04T11:27:43;101572.03;;;16.79;49.03
45813;BME280;31519;45.408;10.962;2024-02-04T11:30:12;101563.97;;;16.19;50.83
45813;BME280;31519;45.408;10.962;2024-02-04T11:32:41;101563.81;;;16.07;52.09
45813;BME280;31519;45.408;10.962;2024-02-04T11:35:09;101560.50;;;16.44;51.29
45813;BME280;31519;45.408;10.962;2024-02-04T11:37:39;101549.25;;;17.32;49.00
45813;BME280;31519;45.408;10.962;2024-02-04T11:40:16;101561.53;;;17.58;48.72
45813;BME280;31519;45.408;10.962;2024-02-04T11:42:45;101551.00;;;16.55;50.35
45813;BME280;31519;45.408;10.962;2024-02-04T11:45:14;101548.91;;;16.87;50.33
45813;BME280;31519;45.408;10.962;2024-02-04T11:47:42;101544.69;;;16.77;50.49
45813;BME280;31519;45.408;10.962;2024-02-04T11:50:11;101549.44;;;17.56;48.17
45813;BME280;31519;45.408;10.962;2024-02-04T11:52:40;101537.84;;;17.93;48.35
45813;BME280;31519;45.408;10.962;2024-02-04T11:55:14;101537.16;;;18.05;47.20
45813;BME280;31519;45.408;10.962;2024-02-04T11:57:44;101540.66;;;17.97;47.92
45813;BME280;31519;45.408;10.962;2024-02-04T12:00:13;101537.06;;;18.55;46.75
45813;BME280;31519;45.408;10.962;2024-02-04T12:02:42;101522.91;;;19.76;43.53
45813;BME280;31519;45.408;10.962;2024-02-04T12:05:10;101511.97;;;19.12;44.18
45813;BME280;31519;45.408;10.962;2024-02-04T12:07:40;101506.19;;;18.65;43.91
45813;BME280;31519;45.408;10.962;2024-02-04T12:10:11;101498.63;;;18.70;44.11
45813;BME280;31519;45.408;10.962;2024-02-04T12:12:40;101501.16;;;19.72;42.89
45813;BME280;31519;45.408;10.962;2024-02-04T12:15:09;101500.06;;;19.61;42.28
45813;BME280;31519;45.408;10.962;2024-02-04T12:17:39;101493.34;;;18.62;43.46
45813;BME280;31519;45.408;10.962;2024-02-04T12:20:07;101495.16;;;18.70;43.33
45813;BME280;31519;45.408;10.962;2024-02-04T12:22:36;101501.59;;;18.77;43.07
45813;BME280;31519;45.408;10.962;2024-02-04T12:25:05;101507.50;;;19.28;42.21
45813;BME280;31519;45.408;10.962;2024-02-04T12:27:34;101500.56;;;18.70;43.72
45813;BME280;31519;45.408;10.962;2024-02-04T12:30:04;101493.28;;;18.29;44.55
45813;BME280;31519;45.408;10.962;2024-02-04T12:32:33;101488.13;;;19.38;43.03
45813;BME280;31519;45.408;10.962;2024-02-04T12:35:01;101494.22;;;19.59;42.22
45813;BME280;31519;45.408;10.962;2024-02-04T12:37:30;101487.88;;;19.67;42.45
45813;BME280;31519;45.408;10.962;2024-02-04T12:40:00;101473.56;;;19.67;42.03
45813;BME280;31519;45.408;10.962;2024-02-04T12:42:31;101467.63;;;18.76;43.01
45813;BME280;31519;45.408;10.962;2024-02-04T12:45:00;101461.19;;;18.69;43.35
45813;BME280;31519;45.408;10.962;2024-02-04T12:47:28;101455.69;;;19.62;42.05
45813;BME280;31519;45.408;10.962;2024-02-04T12:50:00;101454.22;;;20.05;41.63
45813;BME280;31519;45.408;10.962;2024-02-04T12:52:29;101461.31;;;19.57;41.54
45813;BME280;31519;45.408;10.962;2024-02-04T12:55:02;101460.16;;;19.82;41.91
45813;BME280;31519;45.408;10.962;2024-02-04T12:57:31;101466.53;;;19.50;42.32
45813;BME280;31519;45.408;10.962;2024-02-04T13:00:06;101466.38;;;19.99;41.09
45813;BME280;31519;45.408;10.962;2024-02-04T13:02:37;101462.31;;;19.77;41.50
45813;BME280;31519;45.408;10.962;2024-02-04T13:05:07;101452.00;;;19.42;42.40
45813;BME280;31519;45.408;10.962;2024-02-04T13:07:36;101459.78;;;18.95;43.40
45813;BME280;31519;45.408;10.962;2024-02-04T13:10:05;101450.75;;;18.79;44.02
45813;BME280;31519;45.408;10.962;2024-02-04T13:12:34;101448.63;;;19.09;43.63